sensor_id;sensor_type;location;lat;lon;timestamp;temperature;humidity
74224;SHT31;62585;49.706;18.216;2023-11-25T00:00:45;2.66;80.98
74224;SHT31;62585;49.706;18.216;2023-11-25T00:03:31;2.63;80.99
74224;SHT31;62585;49.706;18.216;2023-11-25T00:05:57;2.73;80.99
74224;SHT31;62585;49.706;18.216;2023-11-25T00:08:23;2.66;80.56
74224;SHT31;62585;49.706;18.216;2023-11-25T00:10:50;2.62;80.59
74224;SHT31;62585;49.706;18.216;2023-11-25T00:13:16;2.59;80.75
74224;SHT31;62585;49.706;18.216;2023-11-25T00:15:42;2.65;80.74
74224;SHT31;62585;49.706;18.216;2023-11-25T00:18:09;2.80;80.13
74224;SHT31;62585;49.706;18.216;2023-11-25T00:20:35;2.82;79.81
74224;SHT31;62585;49.706;18.216;2023-11-25T00:23:04;2.76;79.59
74224;SHT31;62585;49.706;18.216;2023-11-25T00:25:33;2.82;79.51
74224;SHT31;62585;49.706;18.216;2023-11-25T00:27:59;2.75;79.64
74224;SHT31;62585;49.706;18.216;2023-11-25T00:30:25;2.73;79.94
74224;SHT31;62585;49.706;18.216;2023-11-25T00:32:51;2.72;80.20
74224;SHT31;62585;49.706;18.216;2023-11-25T00:35:18;2.55;80.38
74224;SHT31;62585;49.706;18.216;2023-11-25T00:37:44;2.60;80.34
74224;SHT31;62585;49.706;18.216;2023-11-25T00:40:10;2.56;80.74
74224;SHT31;62585;49.706;18.216;2023-11-25T00:42:36;2.60;80.68
74224;SHT31;62585;49.706;18.216;2023-11-25T00:45:07;2.59;80.33
74224;SHT31;62585;49.706;18.216;2023-11-25T00:47:33;2.56;80.33
74224;SHT31;62585;49.706;18.216;2023-11-25T00:50:00;2.57;80.18
74224;SHT31;62585;49.706;18.216;2023-11-25T00:52:26;2.67;79.98
74224;SHT31;62585;49.706;18.216;2023-11-25T00:54:53;2.60;80.11
74224;SHT31;62585;49.706;18.216;2023-11-25T00:57:19;2.59;79.77
74224;SHT31;62585;49.706;18.216;2023-11-25T00:59:45;2.59;80.21
74224;SHT31;62585;49.706;18.216;2023-11-25T01:02:11;2.66;80.03
74224;SHT31;62585;49.706;18.216;2023-11-25T01:04:39;2.69;79.44
74224;SHT31;62585;49.706;18.216;2023-11-25T01:07:06;2.71;79.63
74224;SHT31;62585;49.706;18.216;2023-11-25T01:09:32;2.67;79.63
74224;SHT31;62585;49.706;18.216;2023-11-25T01:12:00;2.82;79.56
74224;SHT31;62585;49.706;18.216;2023-11-25T01:14:26;2.72;79.82
74224;SHT31;62585;49.706;18.216;2023-11-25T01:16:53;2.86;79.41
74224;SHT31;62585;49.706;18.216;2023-11-25T01:19:19;2.76;79.69
74224;SHT31;62585;49.706;18.216;2023-11-25T01:21:45;2.60;80.33
74224;SHT31;62585;49.706;18.216;2023-11-25T01:24:11;2.63;80.18
74224;SHT31;62585;49.706;18.216;2023-11-25T01:26:37;2.53;80.41
74224;SHT31;62585;49.706;18.216;2023-11-25T01:29:04;2.48;80.88
74224;SHT31;62585;49.706;18.216;2023-11-25T01:31:30;2.48;80.93
74224;SHT31;62585;49.706;18.216;2023-11-25T01:33:57;2.56;81.08
74224;SHT31;62585;49.706;18.216;2023-11-25T01:36:23;2.48;80.91
74224;SHT31;62585;49.706;18.216;2023-11-25T01:38:49;2.55;80.98
74224;SHT31;62585;49.706;18.216;2023-11-25T01:41:15;2.39;81.48
74224;SHT31;62585;49.706;18.216;2023-11-25T01:43:41;2.28;81.99
74224;SHT31;62585;49.706;18.216;2023-11-25T01:46:07;2.32;82.31
74224;SHT31;62585;49.706;18.216;2023-11-25T01:48:33;2.27;82.60
74224;SHT31;62585;49.706;18.216;2023-11-25T01:51:00;2.29;82.49
74224;SHT31;62585;49.706;18.216;2023-11-25T01:53:28;2.44;82.38
74224;SHT31;62585;49.706;18.216;2023-11-25T01:55:55;2.25;82.87
74224;SHT31;62585;49.706;18.216;2023-11-25T01:58:23;2.22;82.96
74224;SHT31;62585;49.706;18.216;2023-11-25T02:00:49;2.18;82.92
74224;SHT31;62585;49.706;18.216;2023-11-25T02:03:19;2.18;82.73
74224;SHT31;62585;49.706;18.216;2023-11-25T02:05:45;2.28;82.57
74224;SHT31;62585;49.706;18.216;2023-11-25T02:08:12;2.22;82.63
74224;SHT31;62585;49.706;18.216;2023-11-25T02:13:13;2.28;82.64
74224;SHT31;62585;49.706;18.216;2023-11-25T02:15:39;2.29;82.39
74224;SHT31;62585;49.706;18.216;2023-11-25T02:18:08;2.41;82.10
74224;SHT31;62585;49.706;18.216;2023-11-25T02:20:38;2.29;81.68
74224;SHT31;62585;49.706;18.216;2023-11-25T02:23:24;2.22;81.92
74224;SHT31;62585;49.706;18.216;2023-11-25T02:25:51;2.20;82.23
74224;SHT31;62585;49.706;18.216;2023-11-25T02:28:18;2.31;82.01
74224;SHT31;62585;49.706;18.216;2023-11-25T02:30:47;2.39;81.99
74224;SHT31;62585;49.706;18.216;2023-11-25T02:33:14;2.34;81.95
74224;SHT31;62585;49.706;18.216;2023-11-25T02:35:44;2.15;82.00
74224;SHT31;62585;49.706;18.216;2023-11-25T02:38:12;2.29;81.98
74224;SHT31;62585;49.706;18.216;2023-11-25T02:40:42;2.28;81.90
74224;SHT31;62585;49.706;18.216;2023-11-25T02:43:09;2.36;81.32
74224;SHT31;62585;49.706;18.216;2023-11-25T02:45:37;2.28;81.46
74224;SHT31;62585;49.706;18.216;2023-11-25T02:48:04;2.29;81.81
74224;SHT31;62585;49.706;18.216;2023-11-25T02:50:31;2.39;81.76
74224;SHT31;62585;49.706;18.216;2023-11-25T02:52:58;2.34;81.96
74224;SHT31;62585;49.706;18.216;2023-11-25T02:55:24;2.28;82.14
74224;SHT31;62585;49.706;18.216;2023-11-25T02:57:50;2.25;82.14
74224;SHT31;62585;49.706;18.216;2023-11-25T03:00:18;2.21;82.45
74224;SHT31;62585;49.706;18.216;2023-11-25T03:03:00;2.24;82.34
74224;SHT31;62585;49.706;18.216;2023-11-25T03:05:36;2.08;82.92
74224;SHT31;62585;49.706;18.216;2023-11-25T03:08:09;2.15;82.86
74224;SHT31;62585;49.706;18.216;2023-11-25T03:10:42;2.08;82.98
74224;SHT31;62585;49.706;18.216;2023-11-25T03:13:10;2.14;82.95
74224;SHT31;62585;49.706;18.216;2023-11-25T03:15:37;2.18;82.73
74224;SHT31;62585;49.706;18.216;2023-11-25T03:18:06;2.18;82.14
74224;SHT31;62585;49.706;18.216;2023-11-25T03:20:36;2.11;82.68
74224;SHT31;62585;49.706;18.216;2023-11-25T03:23:02;2.17;82.64
74224;SHT31;62585;49.706;18.216;2023-11-25T03:25:32;2.25;82.29
74224;SHT31;62585;49.706;18.216;2023-11-25T03:27:59;2.18;82.21
74224;SHT31;62585;49.706;18.216;2023-11-25T03:30:31;2.17;82.40
74224;SHT31;62585;49.706;18.216;2023-11-25T03:32:57;2.22;82.14
74224;SHT31;62585;49.706;18.216;2023-11-25T03:35:23;2.11;82.45
74224;SHT31;62585;49.706;18.216;2023-11-25T03:37:49;2.27;82.18
74224;SHT31;62585;49.706;18.216;2023-11-25T03:40:15;2.28;82.00
74224;SHT31;62585;49.706;18.216;2023-11-25T03:42:44;2.35;81.98
74224;SHT31;62585;49.706;18.216;2023-11-25T03:45:11;2.25;81.97
74224;SHT31;62585;49.706;18.216;2023-11-25T03:47:41;2.31;82.14
74224;SHT31;62585;49.706;18.216;2023-11-25T03:50:08;2.35;82.02
74224;SHT31;62585;49.706;18.216;2023-11-25T03:52:35;2.42;81.68
74224;SHT31;62585;49.706;18.216;2023-11-25T03:55:01;2.45;81.92
74224;SHT31;62585;49.706;18.216;2023-11-25T03:57:28;2.50;81.44
74224;SHT31;62585;49.706;18.216;2023-11-25T03:59:54;2.46;81.80
74224;SHT31;62585;49.706;18.216;2023-11-25T04:02:20;2.53;81.65
74224;SHT31;62585;49.706;18.216;2023-11-25T04:04:46;2.49;81.30
74224;SHT31;62585;49.706;18.216;2023-11-25T04:07:12;2.55;81.22
74224;SHT31;62585;49.706;18.216;2023-11-25T04:09:38;2.49;81.52
74224;SHT31;62585;49.706;18.216;2023-11-25T04:12:04;2.46;81.70
74224;SHT31;62585;49.706;18.216;2023-11-25T04:14:30;2.55;81.22
74224;SHT31;62585;49.706;18.216;2023-11-25T04:16:56;2.67;81.03
74224;SHT31;62585;49.706;18.216;2023-11-25T04:19:22;2.48;81.24
74224;SHT31;62585;49.706;18.216;2023-11-25T04:21:47;2.45;81.48
74224;SHT31;62585;49.706;18.216;2023-11-25T04:24:16;2.55;81.91
74224;SHT31;62585;49.706;18.216;2023-11-25T04:26:43;2.56;81.64
74224;SHT31;62585;49.706;18.216;2023-11-25T04:29:09;2.48;82.02
74224;SHT31;62585;49.706;18.216;2023-11-25T04:31:37;2.49;82.17
74224;SHT31;62585;49.706;18.216;2023-11-25T04:34:03;2.35;82.43
74224;SHT31;62585;49.706;18.216;2023-11-25T04:36:31;2.38;82.71
74224;SHT31;62585;49.706;18.216;2023-11-25T04:38:57;2.38;82.84
74224;SHT31;62585;49.706;18.216;2023-11-25T04:41:26;2.41;82.71
74224;SHT31;62585;49.706;18.216;2023-11-25T04:43:52;2.38;83.04
74224;SHT31;62585;49.706;18.216;2023-11-25T04:46:17;2.35;83.39
74224;SHT31;62585;49.706;18.216;2023-11-25T04:48:43;2.38;83.71
74224;SHT31;62585;49.706;18.216;2023-11-25T04:51:09;2.62;83.86
74224;SHT31;62585;49.706;18.216;2023-11-25T04:53:35;2.75;83.73
74224;SHT31;62585;49.706;18.216;2023-11-25T04:56:01;2.69;83.94
74224;SHT31;62585;49.706;18.216;2023-11-25T04:58:29;2.49;84.58
74224;SHT31;62585;49.706;18.216;2023-11-25T05:00:55;2.73;84.10
74224;SHT31;62585;49.706;18.216;2023-11-25T05:03:23;2.57;84.04
74224;SHT31;62585;49.706;18.216;2023-11-25T05:05:51;2.79;83.50
74224;SHT31;62585;49.706;18.216;2023-11-25T05:08:17;2.84;83.16
74224;SHT31;62585;49.706;18.216;2023-11-25T05:10:42;2.94;82.80
74224;SHT31;62585;49.706;18.216;2023-11-25T05:13:08;2.97;82.49
74224;SHT31;62585;49.706;18.216;2023-11-25T05:15:34;2.75;82.55
74224;SHT31;62585;49.706;18.216;2023-11-25T05:18:01;2.79;82.53
74224;SHT31;62585;49.706;18.216;2023-11-25T05:20:27;2.87;82.30
74224;SHT31;62585;49.706;18.216;2023-11-25T05:22:53;2.69;82.38
74224;SHT31;62585;49.706;18.216;2023-11-25T05:25:18;2.62;82.71
74224;SHT31;62585;49.706;18.216;2023-11-25T05:27:44;2.49;83.23
74224;SHT31;62585;49.706;18.216;2023-11-25T05:30:10;2.52;83.21
74224;SHT31;62585;49.706;18.216;2023-11-25T05:32:41;2.67;82.73
74224;SHT31;62585;49.706;18.216;2023-11-25T05:35:08;2.62;82.53
74224;SHT31;62585;49.706;18.216;2023-11-25T05:37:38;2.67;82.51
74224;SHT31;62585;49.706;18.216;2023-11-25T05:40:06;2.65;82.31
74224;SHT31;62585;49.706;18.216;2023-11-25T05:42:37;2.35;82.58
74224;SHT31;62585;49.706;18.216;2023-11-25T05:45:08;2.55;82.54
74224;SHT31;62585;49.706;18.216;2023-11-25T05:47:37;2.80;81.93
74224;SHT31;62585;49.706;18.216;2023-11-25T05:50:04;2.76;81.96
74224;SHT31;62585;49.706;18.216;2023-11-25T05:52:30;2.84;81.69
74224;SHT31;62585;49.706;18.216;2023-11-25T05:54:56;2.92;81.60
74224;SHT31;62585;49.706;18.216;2023-11-25T05:57:22;2.94;81.09
74224;SHT31;62585;49.706;18.216;2023-11-25T05:59:48;2.83;80.17
74224;SHT31;62585;49.706;18.216;2023-11-25T06:02:14;2.82;80.05
74224;SHT31;62585;49.706;18.216;2023-11-25T06:04:39;2.69;80.47
74224;SHT31;62585;49.706;18.216;2023-11-25T06:07:05;2.79;79.51
74224;SHT31;62585;49.706;18.216;2023-11-25T06:09:31;2.73;79.81
74224;SHT31;62585;49.706;18.216;2023-11-25T06:11:57;2.55;80.34
74224;SHT31;62585;49.706;18.216;2023-11-25T06:14:23;2.66;80.24
74224;SHT31;62585;49.706;18.216;2023-11-25T06:16:50;2.27;80.20
74224;SHT31;62585;49.706;18.216;2023-11-25T06:19:20;2.56;80.62
74224;SHT31;62585;49.706;18.216;2023-11-25T06:21:46;2.60;80.75
74224;SHT31;62585;49.706;18.216;2023-11-25T06:24:14;2.62;80.61
74224;SHT31;62585;49.706;18.216;2023-11-25T06:26:41;2.62;80.88
74224;SHT31;62585;49.706;18.216;2023-11-25T06:29:07;2.66;80.90
74224;SHT31;62585;49.706;18.216;2023-11-25T06:31:33;2.89;80.16
74224;SHT31;62585;49.706;18.216;2023-11-25T06:34:01;2.86;80.31
74224;SHT31;62585;49.706;18.216;2023-11-25T06:36:27;2.82;79.83
74224;SHT31;62585;49.706;18.216;2023-11-25T06:38:53;2.92;80.24
74224;SHT31;62585;49.706;18.216;2023-11-25T06:41:19;2.67;80.40
74224;SHT31;62585;49.706;18.216;2023-11-25T06:43:49;2.83;80.37
74224;SHT31;62585;49.706;18.216;2023-11-25T06:46:15;2.93;80.07
74224;SHT31;62585;49.706;18.216;2023-11-25T06:48:41;2.67;79.77
74224;SHT31;62585;49.706;18.216;2023-11-25T06:51:07;2.63;80.13
74224;SHT31;62585;49.706;18.216;2023-11-25T06:53:36;2.80;79.54
74224;SHT31;62585;49.706;18.216;2023-11-25T06:56:02;2.67;79.28
74224;SHT31;62585;49.706;18.216;2023-11-25T06:58:28;2.79;79.57
74224;SHT31;62585;49.706;18.216;2023-11-25T07:00:54;2.87;79.16
74224;SHT31;62585;49.706;18.216;2023-11-25T07:03:23;2.97;78.54
74224;SHT31;62585;49.706;18.216;2023-11-25T07:05:49;2.71;78.45
74224;SHT31;62585;49.706;18.216;2023-11-25T07:08:15;2.79;78.73
74224;SHT31;62585;49.706;18.216;2023-11-25T07:10:41;2.77;78.91
74224;SHT31;62585;49.706;18.216;2023-11-25T07:13:22;2.65;78.68
74224;SHT31;62585;49.706;18.216;2023-11-25T07:15:49;2.50;79.82
74224;SHT31;62585;49.706;18.216;2023-11-25T07:18:14;2.50;79.46
74224;SHT31;62585;49.706;18.216;2023-11-25T07:20:40;2.69;79.34
74224;SHT31;62585;49.706;18.216;2023-11-25T07:23:06;2.66;79.29
74224;SHT31;62585;49.706;18.216;2023-11-25T07:25:32;2.76;79.16
74224;SHT31;62585;49.706;18.216;2023-11-25T07:28:00;2.71;78.97
74224;SHT31;62585;49.706;18.216;2023-11-25T07:30:29;2.69;78.74
74224;SHT31;62585;49.706;18.216;2023-11-25T07:32:55;2.84;79.23
74224;SHT31;62585;49.706;18.216;2023-11-25T07:35:21;2.77;77.29
74224;SHT31;62585;49.706;18.216;2023-11-25T07:37:47;2.77;77.97
74224;SHT31;62585;49.706;18.216;2023-11-25T07:40:13;2.87;77.39
74224;SHT31;62585;49.706;18.216;2023-11-25T07:42:40;2.82;77.76
74224;SHT31;62585;49.706;18.216;2023-11-25T07:45:09;2.86;77.22
74224;SHT31;62585;49.706;18.216;2023-11-25T07:47:36;2.87;77.47
74224;SHT31;62585;49.706;18.216;2023-11-25T07:50:02;3.13;77.23
74224;SHT31;62585;49.706;18.216;2023-11-25T07:52:28;3.39;77.54
74224;SHT31;62585;49.706;18.216;2023-11-25T07:54:54;3.51;77.28
74224;SHT31;62585;49.706;18.216;2023-11-25T07:57:20;3.35;77.70
74224;SHT31;62585;49.706;18.216;2023-11-25T07:59:46;3.59;77.22
74224;SHT31;62585;49.706;18.216;2023-11-25T08:02:11;3.56;77.57
74224;SHT31;62585;49.706;18.216;2023-11-25T08:04:39;3.41;77.51
74224;SHT31;62585;49.706;18.216;2023-11-25T08:07:05;3.58;77.34
74224;SHT31;62585;49.706;18.216;2023-11-25T08:09:31;3.56;76.96
74224;SHT31;62585;49.706;18.216;2023-11-25T08:11:58;3.66;77.39
74224;SHT31;62585;49.706;18.216;2023-11-25T08:14:24;3.48;77.46
74224;SHT31;62585;49.706;18.216;2023-11-25T08:16:51;3.39;77.08
74224;SHT31;62585;49.706;18.216;2023-11-25T08:19:17;3.14;77.88
74224;SHT31;62585;49.706;18.216;2023-11-25T08:21:47;3.31;78.11
74224;SHT31;62585;49.706;18.216;2023-11-25T08:24:15;3.46;78.19
74224;SHT31;62585;49.706;18.216;2023-11-25T08:26:43;3.41;76.22
74224;SHT31;62585;49.706;18.216;2023-11-25T08:29:10;3.54;76.10
74224;SHT31;62585;49.706;18.216;2023-11-25T08:31:38;4.34;74.29
74224;SHT31;62585;49.706;18.216;2023-11-25T08:34:04;5.23;72.16
74224;SHT31;62585;49.706;18.216;2023-11-25T08:36:32;5.62;71.48
74224;SHT31;62585;49.706;18.216;2023-11-25T08:38:58;6.38;69.82
74224;SHT31;62585;49.706;18.216;2023-11-25T08:41:27;6.52;68.29
74224;SHT31;62585;49.706;18.216;2023-11-25T08:43:55;6.58;67.40
74224;SHT31;62585;49.706;18.216;2023-11-25T08:46:26;6.24;68.97
74224;SHT31;62585;49.706;18.216;2023-11-25T08:48:52;6.48;67.46
74224;SHT31;62585;49.706;18.216;2023-11-25T08:51:18;6.27;68.78
74224;SHT31;62585;49.706;18.216;2023-11-25T08:53:44;5.99;67.60
74224;SHT31;62585;49.706;18.216;2023-11-25T08:56:12;5.68;70.05
74224;SHT31;62585;49.706;18.216;2023-11-25T08:58:39;5.71;70.76
74224;SHT31;62585;49.706;18.216;2023-11-25T09:01:05;5.48;72.01
74224;SHT31;62585;49.706;18.216;2023-11-25T09:03:33;5.61;72.36
74224;SHT31;62585;49.706;18.216;2023-11-25T09:05:59;5.44;71.00
74224;SHT31;62585;49.706;18.216;2023-11-25T09:08:25;5.65;70.52
74224;SHT31;62585;49.706;18.216;2023-11-25T09:10:51;5.85;71.17
74224;SHT31;62585;49.706;18.216;2023-11-25T09:13:17;5.95;70.94
74224;SHT31;62585;49.706;18.216;2023-11-25T09:15:42;5.68;71.64
74224;SHT31;62585;49.706;18.216;2023-11-25T09:18:10;5.83;72.11
74224;SHT31;62585;49.706;18.216;2023-11-25T09:20:35;6.23;70.05
74224;SHT31;62585;49.706;18.216;2023-11-25T09:23:01;6.71;69.85
74224;SHT31;62585;49.706;18.216;2023-11-25T09:25:27;7.12;68.71
74224;SHT31;62585;49.706;18.216;2023-11-25T09:27:54;7.31;67.60
74224;SHT31;62585;49.706;18.216;2023-11-25T09:30:20;7.09;66.41
74224;SHT31;62585;49.706;18.216;2023-11-25T09:32:47;6.67;67.21
74224;SHT31;62585;49.706;18.216;2023-11-25T09:35:12;6.75;67.01
74224;SHT31;62585;49.706;18.216;2023-11-25T09:37:39;6.61;68.60
74224;SHT31;62585;49.706;18.216;2023-11-25T09:40:06;6.10;66.90
74224;SHT31;62585;49.706;18.216;2023-11-25T09:42:40;5.90;68.34
74224;SHT31;62585;49.706;18.216;2023-11-25T09:45:07;5.54;68.40
74224;SHT31;62585;49.706;18.216;2023-11-25T09:47:36;5.78;69.22
74224;SHT31;62585;49.706;18.216;2023-11-25T09:50:07;5.61;69.83
74224;SHT31;62585;49.706;18.216;2023-11-25T09:52:48;5.45;69.26
74224;SHT31;62585;49.706;18.216;2023-11-25T09:55:16;5.19;68.85
74224;SHT31;62585;49.706;18.216;2023-11-25T09:57:45;5.09;71.28
74224;SHT31;62585;49.706;18.216;2023-11-25T10:00:13;4.82;71.67
74224;SHT31;62585;49.706;18.216;2023-11-25T10:02:50;4.80;71.95
74224;SHT31;62585;49.706;18.216;2023-11-25T10:05:17;4.59;71.27
74224;SHT31;62585;49.706;18.216;2023-11-25T10:07:43;4.72;71.29
74224;SHT31;62585;49.706;18.216;2023-11-25T10:10:09;4.89;72.32
74224;SHT31;62585;49.706;18.216;2023-11-25T10:12:40;4.66;71.85
74224;SHT31;62585;49.706;18.216;2023-11-25T10:15:06;4.51;71.39
74224;SHT31;62585;49.706;18.216;2023-11-25T10:17:34;4.21;72.09
74224;SHT31;62585;49.706;18.216;2023-11-25T10:20:09;4.42;71.93
74224;SHT31;62585;49.706;18.216;2023-11-25T10:22:51;4.25;72.86
74224;SHT31;62585;49.706;18.216;2023-11-25T10:25:23;4.33;72.27
74224;SHT31;62585;49.706;18.216;2023-11-25T10:27:50;4.48;71.81
74224;SHT31;62585;49.706;18.216;2023-11-25T10:30:21;4.71;72.47
74224;SHT31;62585;49.706;18.216;2023-11-25T10:32:48;4.55;71.45
74224;SHT31;62585;49.706;18.216;2023-11-25T10:35:18;4.62;71.29
74224;SHT31;62585;49.706;18.216;2023-11-25T10:37:45;4.59;70.40
74224;SHT31;62585;49.706;18.216;2023-11-25T10:40:12;4.71;70.88
74224;SHT31;62585;49.706;18.216;2023-11-25T10:42:43;4.51;71.24
74224;SHT31;62585;49.706;18.216;2023-11-25T10:45:18;4.51;71.60
74224;SHT31;62585;49.706;18.216;2023-11-25T10:47:47;4.36;70.85
74224;SHT31;62585;49.706;18.216;2023-11-25T10:50:12;3.96;71.22
74224;SHT31;62585;49.706;18.216;2023-11-25T10:52:42;4.03;70.99
74224;SHT31;62585;49.706;18.216;2023-11-25T10:55:09;4.96;71.92
74224;SHT31;62585;49.706;18.216;2023-11-25T10:57:36;5.47;66.76
74224;SHT31;62585;49.706;18.216;2023-11-25T11:00:05;6.05;65.77
74224;SHT31;62585;49.706;18.216;2023-11-25T11:02:48;6.99;64.90
74224;SHT31;62585;49.706;18.216;2023-11-25T11:08:03;7.72;63.09
74224;SHT31;62585;49.706;18.216;2023-11-25T11:10:44;8.02;63.19
74224;SHT31;62585;49.706;18.216;2023-11-25T11:13:14;7.64;62.39
74224;SHT31;62585;49.706;18.216;2023-11-25T11:15:42;7.93;62.58
74224;SHT31;62585;49.706;18.216;2023-11-25T11:20:44;8.87;60.20
74224;SHT31;62585;49.706;18.216;2023-11-25T11:23:18;7.88;60.90
74224;SHT31;62585;49.706;18.216;2023-11-25T11:26:07;7.06;61.65
74224;SHT31;62585;49.706;18.216;2023-11-25T11:32:23;6.86;63.36
74224;SHT31;62585;49.706;18.216;2023-11-25T11:34:42;7.02;61.80
74224;SHT31;62585;49.706;18.216;2023-11-25T11:37:07;7.12;62.10
74224;SHT31;62585;49.706;18.216;2023-11-25T11:39:55;6.64;61.24
74224;SHT31;62585;49.706;18.216;2023-11-25T11:42:28;6.17;61.59
74224;SHT31;62585;49.706;18.216;2023-11-25T11:47:47;5.90;64.43
74224;SHT31;62585;49.706;18.216;2023-11-25T11:50:21;5.40;64.58
74224;SHT31;62585;49.706;18.216;2023-11-25T12:03:13;4.49;68.41
74224;SHT31;62585;49.706;18.216;2023-11-25T12:05:40;4.59;69.03
74224;SHT31;62585;49.706;18.216;2023-11-25T12:08:05;4.65;66.29
74224;SHT31;62585;49.706;18.216;2023-11-25T12:10:32;4.85;67.52
74224;SHT31;62585;49.706;18.216;2023-11-25T12:12:58;4.75;66.51
74224;SHT31;62585;49.706;18.216;2023-11-25T12:15:24;4.80;68.15
74224;SHT31;62585;49.706;18.216;2023-11-25T12:17:50;5.09;68.83
74224;SHT31;62585;49.706;18.216;2023-11-25T12:20:18;4.93;71.17
74224;SHT31;62585;49.706;18.216;2023-11-25T12:22:45;4.95;71.65
74224;SHT31;62585;49.706;18.216;2023-11-25T12:25:12;4.99;72.11
74224;SHT31;62585;49.706;18.216;2023-11-25T12:28:06;4.96;72.18
74224;SHT31;62585;49.706;18.216;2023-11-25T12:30:41;5.06;70.32
74224;SHT31;62585;49.706;18.216;2023-11-25T12:33:09;5.14;69.11
74224;SHT31;62585;49.706;18.216;2023-11-25T12:35:39;5.17;68.56
74224;SHT31;62585;49.706;18.216;2023-11-25T12:38:05;5.28;67.89
74224;SHT31;62585;49.706;18.216;2023-11-25T12:40:32;5.34;68.63
74224;SHT31;62585;49.706;18.216;2023-11-25T12:43:04;5.51;67.10
74224;SHT31;62585;49.706;18.216;2023-11-25T12:45:32;5.44;67.24
74224;SHT31;62585;49.706;18.216;2023-11-25T12:47:59;5.55;66.87
74224;SHT31;62585;49.706;18.216;2023-11-25T12:50:27;5.41;66.69
74224;SHT31;62585;49.706;18.216;2023-11-25T12:53:10;5.50;67.70
74224;SHT31;62585;49.706;18.216;2023-11-25T12:55:41;5.43;67.78
74224;SHT31;62585;49.706;18.216;2023-11-25T12:58:14;5.51;67.04
74224;SHT31;62585;49.706;18.216;2023-11-25T13:03:11;7.17;63.40
74224;SHT31;62585;49.706;18.216;2023-11-25T13:05:38;7.86;59.91
74224;SHT31;62585;49.706;18.216;2023-11-25T13:08:23;8.30;58.97
74224;SHT31;62585;49.706;18.216;2023-11-25T13:10:57;8.92;58.32
74224;SHT31;62585;49.706;18.216;2023-11-25T13:13:27;9.46;54.01
74224;SHT31;62585;49.706;18.216;2023-11-25T13:15:54;9.09;54.42
74224;SHT31;62585;49.706;18.216;2023-11-25T13:18:21;8.54;56.09
74224;SHT31;62585;49.706;18.216;2023-11-25T13:20:50;8.43;56.27
74224;SHT31;62585;49.706;18.216;2023-11-25T13:23:17;9.16;54.47
74224;SHT31;62585;49.706;18.216;2023-11-25T13:25:44;9.29;54.31
74224;SHT31;62585;49.706;18.216;2023-11-25T13:28:10;9.35;54.32
74224;SHT31;62585;49.706;18.216;2023-11-25T13:30:36;8.70;54.75
74224;SHT31;62585;49.706;18.216;2023-11-25T13:33:02;8.59;54.51
74224;SHT31;62585;49.706;18.216;2023-11-25T13:35:29;8.22;56.20
74224;SHT31;62585;49.706;18.216;2023-11-25T13:37:59;7.43;58.65
74224;SHT31;62585;49.706;18.216;2023-11-25T13:40:28;7.40;59.45
74224;SHT31;62585;49.706;18.216;2023-11-25T13:43:08;7.10;60.54
74224;SHT31;62585;49.706;18.216;2023-11-25T13:45:43;6.69;61.68
74224;SHT31;62585;49.706;18.216;2023-11-25T13:48:10;6.34;62.68
74224;SHT31;62585;49.706;18.216;2023-11-25T13:50:42;5.73;65.03
74224;SHT31;62585;49.706;18.216;2023-11-25T13:53:08;5.54;65.93
74224;SHT31;62585;49.706;18.216;2023-11-25T13:55:34;5.48;65.77
74224;SHT31;62585;49.706;18.216;2023-11-25T13:58:11;5.10;65.48
74224;SHT31;62585;49.706;18.216;2023-11-25T14:00:38;5.06;66.55
74224;SHT31;62585;49.706;18.216;2023-11-25T14:03:04;4.93;65.95
74224;SHT31;62585;49.706;18.216;2023-11-25T14:05:39;4.73;66.95
74224;SHT31;62585;49.706;18.216;2023-11-25T14:08:09;4.65;67.22
74224;SHT31;62585;49.706;18.216;2023-11-25T14:10:38;4.56;67.18
74224;SHT31;62585;49.706;18.216;2023-11-25T14:13:06;4.59;66.86
74224;SHT31;62585;49.706;18.216;2023-11-25T14:15:35;4.40;68.38
74224;SHT31;62585;49.706;18.216;2023-11-25T14:18:01;4.44;68.40
74224;SHT31;62585;49.706;18.216;2023-11-25T14:20:28;4.62;67.16
74224;SHT31;62585;49.706;18.216;2023-11-25T14:22:54;4.06;69.68
74224;SHT31;62585;49.706;18.216;2023-11-25T14:25:22;3.96;69.24
74224;SHT31;62585;49.706;18.216;2023-11-25T14:27:49;4.10;69.97
74224;SHT31;62585;49.706;18.216;2023-11-25T14:30:16;4.20;69.08
74224;SHT31;62585;49.706;18.216;2023-11-25T14:32:44;3.96;70.58
74224;SHT31;62585;49.706;18.216;2023-11-25T14:35:15;4.08;71.47
74224;SHT31;62585;49.706;18.216;2023-11-25T14:37:41;4.18;71.00
74224;SHT31;62585;49.706;18.216;2023-11-25T14:40:10;3.97;71.00
74224;SHT31;62585;49.706;18.216;2023-11-25T14:42:42;4.14;70.85
74224;SHT31;62585;49.706;18.216;2023-11-25T14:45:10;4.28;70.54
74224;SHT31;62585;49.706;18.216;2023-11-25T14:47:37;4.30;70.81
74224;SHT31;62585;49.706;18.216;2023-11-25T14:50:04;4.03;72.16
74224;SHT31;62585;49.706;18.216;2023-11-25T14:52:30;4.10;71.32
74224;SHT31;62585;49.706;18.216;2023-11-25T14:54:56;4.11;71.65
74224;SHT31;62585;49.706;18.216;2023-11-25T14:57:22;4.22;71.55
74224;SHT31;62585;49.706;18.216;2023-11-25T14:59:48;4.14;71.07
74224;SHT31;62585;49.706;18.216;2023-11-25T15:02:15;4.10;71.32
74224;SHT31;62585;49.706;18.216;2023-11-25T15:04:41;4.08;71.21
74224;SHT31;62585;49.706;18.216;2023-11-25T15:07:07;3.97;71.52
74224;SHT31;62585;49.706;18.216;2023-11-25T15:09:33;4.10;69.59
74224;SHT31;62585;49.706;18.216;2023-11-25T15:12:00;4.20;70.29
74224;SHT31;62585;49.706;18.216;2023-11-25T15:14:27;4.00;71.44
74224;SHT31;62585;49.706;18.216;2023-11-25T15:16:53;3.97;71.39
74224;SHT31;62585;49.706;18.216;2023-11-25T15:19:20;3.97;71.45
74224;SHT31;62585;49.706;18.216;2023-11-25T15:21:46;3.80;72.89
74224;SHT31;62585;49.706;18.216;2023-11-25T15:24:12;3.83;72.60
74224;SHT31;62585;49.706;18.216;2023-11-25T15:26:42;3.79;71.62
74224;SHT31;62585;49.706;18.216;2023-11-25T15:29:16;3.91;71.52
74224;SHT31;62585;49.706;18.216;2023-11-25T15:31:44;3.78;72.01
74224;SHT31;62585;49.706;18.216;2023-11-25T15:34:11;3.80;72.27
74224;SHT31;62585;49.706;18.216;2023-11-25T15:36:37;3.78;71.66
74224;SHT31;62585;49.706;18.216;2023-11-25T15:39:04;3.72;71.37
74224;SHT31;62585;49.706;18.216;2023-11-25T15:41:31;3.79;71.53
74224;SHT31;62585;49.706;18.216;2023-11-25T15:43:57;3.89;71.45
74224;SHT31;62585;49.706;18.216;2023-11-25T15:46:23;3.72;70.92
74224;SHT31;62585;49.706;18.216;2023-11-25T15:48:49;3.70;71.05
74224;SHT31;62585;49.706;18.216;2023-11-25T15:51:15;3.73;70.98
74224;SHT31;62585;49.706;18.216;2023-11-25T15:53:41;3.72;71.34
74224;SHT31;62585;49.706;18.216;2023-11-25T15:56:07;3.87;70.79
74224;SHT31;62585;49.706;18.216;2023-11-25T15:58:33;3.83;70.36
74224;SHT31;62585;49.706;18.216;2023-11-25T16:00:59;3.93;69.64